Time;durP1;ratioP1;P1;durP2;ratioP2;P2;SDS_P1;SDS_P2;PMS_P1;PMS_P2;Temp;Humidity;BMP_temperature;BMP_pressure;BME280_temperature;BME280_humidity;BME280_pressure;Samples;Min_cycle;Max_cycle;Signal;HPM_P1;HPM_P2
2023/05/13 00:01:26;;;;;;;20.23;13.82;;;;;;;;;;5088622;28;20028;-74
2023/05/13 00:03:52;;;;;;;22.08;15.95;;;;;;;;;;5093216;28;20055;-74
2023/05/13 00:06:18;;;;;;;24.25;16.98;;;;;;;;;;5093609;28;20055;-74
2023/05/13 00:08:44;;;;;;;22.58;15.57;;;;;;;;;;5093641;28;20060;-74
2023/05/13 00:11:10;;;;;;;23.75;17.05;;;;;;;;;;5093030;28;20048;-74
2023/05/13 00:13:36;;;;;;;20.35;15.20;;;;;;;;;;5093061;28;20041;-75
2023/05/13 00:16:03;;;;;;;28.00;16.05;;;;;;;;;;5093566;28;20028;-74
2023/05/13 00:18:29;;;;;;;22.77;15.60;;;;;;;;;;5093242;28;20032;-74
2023/05/13 00:20:55;;;;;;;24.40;15.73;;;;;;;;;;5092454;28;20039;-74
2023/05/13 00:23:22;;;;;;;25.50;16.67;;;;;;;;;;5088825;28;20020;-74
2023/05/13 00:25:48;;;;;;;21.83;15.65;;;;;;;;;;5084155;28;20037;-75
2023/05/13 00:28:14;;;;;;;22.60;15.77;;;;;;;;;;5092337;28;20419;-75
2023/05/13 00:30:44;;;;;;;23.05;15.40;;;;;;;;;;5092761;28;20020;-75
2023/05/13 00:33:10;;;;;;;20.60;14.48;;;;;;;;;;5090134;28;20028;-75
2023/05/13 00:35:36;;;;;;;20.98;14.07;;;;;;;;;;5093325;28;20039;-75
2023/05/13 00:38:02;;;;;;;22.65;16.02;;;;;;;;;;5092478;28;20108;-75
2023/05/13 00:40:28;;;;;;;20.45;15.07;;;;;;;;;;5085657;28;20122;-75
2023/05/13 00:42:54;;;;;;;19.30;14.20;;;;;;;;;;5092554;28;20024;-75
2023/05/13 00:45:21;;;;;;;17.95;12.85;;;;;;;;;;5092918;28;20478;-75
2023/05/13 00:47:48;;;;;;;20.25;13.85;;;;;;;;;;5092419;28;20470;-75
2023/05/13 00:50:14;;;;;;;20.33;14.15;;;;;;;;;;5092620;28;20078;-75
2023/05/13 00:52:41;;;;;;;24.20;15.98;;;;;;;;;;5092868;28;20106;-75
2023/05/13 00:55:08;;;;;;;24.50;16.55;;;;;;;;;;5092303;28;20032;-75
2023/05/13 00:57:34;;;;;;;21.27;15.23;;;;;;;;;;5092434;28;20081;-75
2023/05/13 01:00:01;;;;;;;23.05;16.48;;;;;;;;;;5092275;28;20020;-74
2023/05/13 01:02:31;;;;;;;25.67;16.83;;;;;;;;;;5092749;28;20474;-75
2023/05/13 01:05:16;;;;;;;22.58;15.82;;;;;;;;;;5092131;28;20085;-75
2023/05/13 01:07:51;;;;;;;22.65;14.70;;;;;;;;;;5087602;28;20032;-75
2023/05/13 01:10:27;;;;;;;20.15;14.18;;;;;;;;;;5091640;28;20039;-75
2023/05/13 01:13:02;;;;;;;24.80;15.40;;;;;;;;;;5090887;28;20398;-74
2023/05/13 01:15:29;;;;;;;18.63;13.38;;;;;;;;;;5091645;28;20032;-74
2023/05/13 01:17:55;;;;;;;18.92;12.80;;;;;;;;;;5092146;28;20470;-74
2023/05/13 01:20:22;;;;;;;23.15;13.95;;;;;;;;;;5081494;28;20020;-75
2023/05/13 01:22:48;;;;;;;20.77;14.48;;;;;;;;;;5092277;28;20288;-75
2023/05/13 01:25:14;;;;;;;19.55;14.50;;;;;;;;;;5091121;28;20068;-74
2023/05/13 01:27:40;;;;;;;18.25;12.65;;;;;;;;;;5091974;28;20026;-75
2023/05/13 01:30:07;;;;;;;18.95;12.95;;;;;;;;;;5091904;28;20063;-74
2023/05/13 01:32:34;;;;;;;18.55;12.85;;;;;;;;;;5091985;28;20024;-75
2023/05/13 01:35:00;;;;;;;22.67;14.63;;;;;;;;;;5088123;28;20047;-75
2023/05/13 01:37:27;;;;;;;16.80;13.23;;;;;;;;;;5091575;28;20016;-75
2023/05/13 01:39:53;;;;;;;18.27;13.32;;;;;;;;;;5091891;28;20027;-75
2023/05/13 01:42:19;;;;;;;16.95;13.52;;;;;;;;;;5089043;28;20051;-74
2023/05/13 01:44:45;;;;;;;19.80;13.30;;;;;;;;;;5087100;28;20033;-75
2023/05/13 01:47:11;;;;;;;18.45;12.00;;;;;;;;;;5091082;28;20107;-75
2023/05/13 01:49:37;;;;;;;19.27;14.50;;;;;;;;;;5090890;28;20028;-74
2023/05/13 01:52:04;;;;;;;20.15;14.30;;;;;;;;;;5091889;28;20074;-74
2023/05/13 01:54:30;;;;;;;18.30;13.63;;;;;;;;;;5090808;28;20028;-74
2023/05/13 01:56:56;;;;;;;20.00;14.68;;;;;;;;;;5091563;28;20024;-74
2023/05/13 01:59:23;;;;;;;23.23;16.42;;;;;;;;;;5090854;28;20024;-75
2023/05/13 02:01:49;;;;;;;19.80;13.25;;;;;;;;;;5090928;28;20024;-75
2023/05/13 02:04:15;;;;;;;23.42;14.25;;;;;;;;;;5091501;28;20036;-75
2023/05/13 02:06:42;;;;;;;25.67;15.88;;;;;;;;;;5083546;28;20024;-75
2023/05/13 02:09:08;;;;;;;20.73;14.25;;;;;;;;;;5090114;28;20385;-75
2023/05/13 02:11:34;;;;;;;22.60;15.30;;;;;;;;;;5083756;28;20498;-74
2023/05/13 02:14:00;;;;;;;24.20;15.88;;;;;;;;;;5090840;28;20032;-74
2023/05/13 02:16:26;;;;;;;20.92;15.52;;;;;;;;;;5091026;28;20032;-74
2023/05/13 02:18:52;;;;;;;20.48;13.77;;;;;;;;;;5091046;28;20477;-74
2023/05/13 02:21:18;;;;;;;21.30;15.55;;;;;;;;;;5089847;28;20107;-74
2023/05/13 02:23:44;;;;;;;24.88;15.80;;;;;;;;;;5090504;28;20054;-75
2023/05/13 02:26:10;;;;;;;21.05;15.98;;;;;;;;;;5089714;28;20043;-74
2023/05/13 02:28:36;;;;;;;23.58;16.30;;;;;;;;;;5090589;28;20027;-74
2023/05/13 02:31:02;;;;;;;22.52;16.17;;;;;;;;;;5090844;28;20027;-74
2023/05/13 02:33:28;;;;;;;23.40;15.95;;;;;;;;;;5087957;28;20081;-75
2023/05/13 02:35:54;;;;;;;21.00;13.48;;;;;;;;;;5085502;28;20390;-74
2023/05/13 02:38:20;;;;;;;23.92;15.27;;;;;;;;;;5091076;28;20016;-74
2023/05/13 02:40:47;;;;;;;22.70;15.48;;;;;;;;;;5090713;28;20059;-74
2023/05/13 02:43:12;;;;;;;23.50;15.73;;;;;;;;;;5082562;28;20024;-74
2023/05/13 02:45:41;;;;;;;21.88;15.35;;;;;;;;;;5090321;28;20030;-74
2023/05/13 02:48:09;;;;;;;23.17;15.10;;;;;;;;;;5089606;28;20450;-74
2023/05/13 02:50:35;;;;;;;21.80;15.85;;;;;;;;;;5086588;28;20032;-75
2023/05/13 02:53:01;;;;;;;22.27;16.02;;;;;;;;;;5090274;28;20020;-74
2023/05/13 02:55:27;;;;;;;23.63;16.05;;;;;;;;;;5087725;28;20043;-75
2023/05/13 02:57:55;;;;;;;22.42;16.13;;;;;;;;;;5086429;28;20474;-75
2023/05/13 03:00:21;;;;;;;23.63;14.90;;;;;;;;;;5089507;28;20092;-74
2023/05/13 03:02:47;;;;;;;22.02;16.13;;;;;;;;;;5086466;28;20467;-74
2023/05/13 03:05:13;;;;;;;24.55;16.70;;;;;;;;;;5087199;28;20036;-75
2023/05/13 03:07:39;;;;;;;24.95;15.40;;;;;;;;;;5090273;28;20028;-75
2023/05/13 03:10:05;;;;;;;21.70;15.77;;;;;;;;;;5090470;28;20439;-74
2023/05/13 03:12:32;;;;;;;22.58;15.40;;;;;;;;;;5088920;28;20075;-75
2023/05/13 03:14:58;;;;;;;26.15;16.63;;;;;;;;;;5086369;28;20111;-74
2023/05/13 03:17:24;;;;;;;24.60;15.70;;;;;;;;;;5089874;28;20036;-75
2023/05/13 03:19:50;;;;;;;20.52;14.45;;;;;;;;;;5090235;28;20066;-74
2023/05/13 03:22:16;;;;;;;21.98;15.93;;;;;;;;;;5084712;28;20150;-74
2023/05/13 03:24:43;;;;;;;23.83;16.77;;;;;;;;;;5088471;28;20106;-74
2023/05/13 03:27:09;;;;;;;22.35;16.50;;;;;;;;;;5089828;28;20035;-74
2023/05/13 03:29:35;;;;;;;23.42;15.18;;;;;;;;;;5089679;28;20078;-74
2023/05/13 03:32:01;;;;;;;23.25;15.40;;;;;;;;;;5089931;28;20020;-75
2023/05/13 03:34:27;;;;;;;24.15;15.95;;;;;;;;;;5091112;28;20028;-75
2023/05/13 03:36:53;;;;;;;27.27;15.30;;;;;;;;;;5094112;28;20028;-75
2023/05/13 03:39:19;;;;;;;22.77;15.35;;;;;;;;;;5093268;28;20060;-74
2023/05/13 03:41:45;;;;;;;25.70;16.75;;;;;;;;;;5093513;28;20024;-75
2023/05/13 03:44:11;;;;;;;23.00;16.08;;;;;;;;;;5093805;28;20035;-75
2023/05/13 03:46:37;;;;;;;22.65;14.50;;;;;;;;;;5094123;28;20024;-74
2023/05/13 03:49:03;;;;;;;21.88;13.77;;;;;;;;;;5093263;28;20053;-75
2023/05/13 03:51:29;;;;;;;24.90;15.02;;;;;;;;;;5094022;28;20031;-74
2023/05/13 03:53:55;;;;;;;23.17;15.43;;;;;;;;;;5091178;28;20053;-74
2023/05/13 03:56:21;;;;;;;24.38;14.25;;;;;;;;;;5087397;28;20317;-75
2023/05/13 03:58:47;;;;;;;18.80;12.68;;;;;;;;;;5093434;28;20099;-75
2023/05/13 04:01:14;;;;;;;23.83;12.60;;;;;;;;;;5093795;28;20125;-74
2023/05/13 04:03:43;;;;;;;22.50;14.90;;;;;;;;;;5093937;28;20024;-74
2023/05/13 04:06:09;;;;;;;25.65;14.85;;;;;;;;;;5093828;28;20039;-74
2023/05/13 04:08:35;;;;;;;20.58;14.60;;;;;;;;;;5093244;28;20401;-75
2023/05/13 04:11:01;;;;;;;22.48;14.45;;;;;;;;;;5093502;28;20111;-74
2023/05/13 04:13:27;;;;;;;19.45;12.95;;;;;;;;;;5092205;28;20044;-74
2023/05/13 04:15:54;;;;;;;16.40;9.52;;;;;;;;;;5093569;28;20043;-75
2023/05/13 04:18:20;;;;;;;24.13;13.98;;;;;;;;;;5087133;28;20103;-75
2023/05/13 04:20:46;;;;;;;17.25;12.85;;;;;;;;;;5093588;28;20536;-74
2023/05/13 04:23:12;;;;;;;18.63;12.40;;;;;;;;;;5088145;28;20032;-74
2023/05/13 04:25:38;;;;;;;18.00;12.35;;;;;;;;;;5089560;28;20043;-74
2023/05/13 04:28:04;;;;;;;18.77;11.60;;;;;;;;;;5092831;28;20031;-74
2023/05/13 04:30:30;;;;;;;16.30;11.15;;;;;;;;;;5093441;28;20102;-74
2023/05/13 04:32:56;;;;;;;21.05;12.27;;;;;;;;;;5093269;28;20107;-74
2023/05/13 04:35:22;;;;;;;14.40;9.38;;;;;;;;;;5093044;28;20032;-75
2023/05/13 04:37:48;;;;;;;15.00;10.63;;;;;;;;;;5092691;28;20397;-75
2023/05/13 04:40:14;;;;;;;16.02;11.23;;;;;;;;;;5093436;28;20032;-74
2023/05/13 04:42:40;;;;;;;11.88;9.75;;;;;;;;;;5092532;28;20032;-74
2023/05/13 04:45:07;;;;;;;16.20;11.45;;;;;;;;;;5091690;28;20032;-75
2023/05/13 04:47:34;;;;;;;15.07;11.82;;;;;;;;;;5092403;28;20027;-74
2023/05/13 04:50:00;;;;;;;15.93;10.18;;;;;;;;;;5091473;28;20077;-74
2023/05/13 04:52:26;;;;;;;14.35;11.23;;;;;;;;;;5073972;28;20390;-74
2023/05/13 04:54:52;;;;;;;16.85;11.05;;;;;;;;;;5092507;28;20036;-75
2023/05/13 04:57:18;;;;;;;17.48;11.30;;;;;;;;;;5092576;28;20031;-75
2023/05/13 04:59:44;;;;;;;17.23;11.75;;;;;;;;;;5074491;28;20028;-74
2023/05/13 05:02:10;;;;;;;13.07;10.32;;;;;;;;;;5092237;28;20032;-74
2023/05/13 05:04:36;;;;;;;12.27;9.65;;;;;;;;;;5092624;28;20526;-75
2023/05/13 05:07:02;;;;;;;9.80;8.05;;;;;;;;;;5090375;28;20032;-74
2023/05/13 05:09:29;;;;;;;14.82;10.07;;;;;;;;;;5086797;28;20024;-74
2023/05/13 05:11:54;;;;;;;13.68;9.77;;;;;;;;;;5087844;28;20055;-75
2023/05/13 05:14:20;;;;;;;12.32;9.23;;;;;;;;;;5092529;28;20389;-75
2023/05/13 05:16:46;;;;;;;14.07;9.32;;;;;;;;;;5081717;28;20027;-75
2023/05/13 05:19:12;;;;;;;12.25;8.85;;;;;;;;;;5093961;28;20058;-75
2023/05/13 05:21:38;;;;;;;13.00;8.68;;;;;;;;;;5062957;28;20547;-74
2023/05/13 05:24:05;;;;;;;12.65;7.95;;;;;;;;;;5074304;28;20047;-74
2023/05/13 05:26:31;;;;;;;13.00;8.45;;;;;;;;;;5093361;28;20135;-75
2023/05/13 05:28:57;;;;;;;16.23;9.23;;;;;;;;;;5093204;28;20027;-74
2023/05/13 05:31:25;;;;;;;10.68;7.93;;;;;;;;;;5093414;28;20077;-75
2023/05/13 05:33:51;;;;;;;7.30;5.45;;;;;;;;;;5094326;28;20020;-75
2023/05/13 05:36:17;;;;;;;10.20;8.48;;;;;;;;;;5094199;28;20028;-75
2023/05/13 05:38:43;;;;;;;8.82;6.55;;;;;;;;;;5093842;28;20074;-75
2023/05/13 05:41:09;;;;;;;11.52;7.25;;;;;;;;;;5094241;28;20036;-75
2023/05/13 05:43:35;;;;;;;8.60;6.40;;;;;;;;;;5094355;28;20415;-75
2023/05/13 05:46:01;;;;;;;7.88;6.60;;;;;;;;;;5093744;28;20032;-75
2023/05/13 05:48:27;;;;;;;8.90;7.95;;;;;;;;;;5094353;28;20028;-75
2023/05/13 05:50:55;;;;;;;10.40;7.32;;;;;;;;;;5094239;28;20048;-75
2023/05/13 05:53:21;;;;;;;8.15;7.20;;;;;;;;;;5092759;28;20527;-75
2023/05/13 05:55:47;;;;;;;9.23;6.47;;;;;;;;;;5087538;28;20060;-76
2023/05/13 05:58:16;;;;;;;10.07;7.47;;;;;;;;;;5090976;28;20545;-75
2023/05/13 06:00:42;;;;;;;10.00;7.18;;;;;;;;;;5088778;28;20422;-75
2023/05/13 06:03:08;;;;;;;6.93;5.25;;;;;;;;;;5091232;28;20043;-76
2023/05/13 06:05:34;;;;;;;7.05;5.93;;;;;;;;;;5090329;28;20040;-76
2023/05/13 06:08:00;;;;;;;7.65;6.22;;;;;;;;;;5082040;28;20174;-76
2023/05/13 06:10:26;;;;;;;8.15;6.50;;;;;;;;;;5087579;28;20415;-76
2023/05/13 06:12:52;;;;;;;8.10;6.55;;;;;;;;;;5093320;28;20054;-75
2023/05/13 06:15:18;;;;;;;8.13;6.72;;;;;;;;;;5093626;28;20032;-76
2023/05/13 06:17:44;;;;;;;8.95;6.28;;;;;;;;;;5075447;28;20020;-76
2023/05/13 06:20:11;;;;;;;8.30;5.50;;;;;;;;;;5093740;28;20524;-76
2023/05/13 06:22:37;;;;;;;10.50;6.25;;;;;;;;;;5093645;28;20089;-76
2023/05/13 06:25:03;;;;;;;7.82;5.97;;;;;;;;;;5093804;28;20474;-76
2023/05/13 06:27:28;;;;;;;7.22;5.93;;;;;;;;;;5075445;28;20025;-76
2023/05/13 06:29:54;;;;;;;8.45;5.47;;;;;;;;;;5073106;28;20535;-76
2023/05/13 06:32:21;;;;;;;6.82;5.47;;;;;;;;;;5087226;28;20035;-77
2023/05/13 06:34:47;;;;;;;9.25;5.50;;;;;;;;;;5093506;28;20036;-77
2023/05/13 06:37:13;;;;;;;6.70;5.60;;;;;;;;;;5093567;28;20106;-77
2023/05/13 06:39:39;;;;;;;6.82;6.15;;;;;;;;;;5093337;28;20317;-76
2023/05/13 06:42:05;;;;;;;7.80;6.00;;;;;;;;;;5093451;28;20020;-77
2023/05/13 06:44:31;;;;;;;9.25;5.60;;;;;;;;;;5085544;28;20069;-77
2023/05/13 06:46:57;;;;;;;8.80;6.22;;;;;;;;;;5091471;28;20024;-77
2023/05/13 06:49:23;;;;;;;5.82;4.80;;;;;;;;;;5093499;28;20406;-77
2023/05/13 06:51:50;;;;;;;8.40;5.25;;;;;;;;;;5093675;28;20078;-77
2023/05/13 06:54:15;;;;;;;5.15;3.80;;;;;;;;;;5074716;28;20035;-77
2023/05/13 06:56:42;;;;;;;7.65;5.47;;;;;;;;;;5093079;28;20024;-76
2023/05/13 06:59:08;;;;;;;7.30;4.47;;;;;;;;;;5074235;28;20024;-77
2023/05/13 07:01:34;;;;;;;5.13;4.63;;;;;;;;;;5073165;28;20027;-77
2023/05/13 07:04:00;;;;;;;5.63;5.15;;;;;;;;;;5092081;28;20095;-76
2023/05/13 07:06:26;;;;;;;5.85;4.88;;;;;;;;;;5092907;28;20028;-76
2023/05/13 07:08:52;;;;;;;5.18;4.38;;;;;;;;;;5092413;28;20020;-76
2023/05/13 07:11:18;;;;;;;5.95;4.65;;;;;;;;;;5091592;28;20082;-77
2023/05/13 07:13:44;;;;;;;5.95;5.38;;;;;;;;;;5077901;28;20123;-76
2023/05/13 07:16:10;;;;;;;7.53;4.38;;;;;;;;;;5090027;28;20050;-76
2023/05/13 07:18:36;;;;;;;5.45;4.82;;;;;;;;;;5079298;28;20021;-76
2023/05/13 07:21:02;;;;;;;6.93;5.60;;;;;;;;;;5092219;28;20378;-76
2023/05/13 07:23:28;;;;;;;7.30;5.70;;;;;;;;;;5092501;28;20404;-76
2023/05/13 07:25:55;;;;;;;8.65;6.35;;;;;;;;;;5078978;28;20028;-76
2023/05/13 07:28:21;;;;;;;8.75;5.90;;;;;;;;;;5085971;28;20020;-76
2023/05/13 07:30:47;;;;;;;6.38;5.75;;;;;;;;;;5092218;28;20031;-77
2023/05/13 07:33:13;;;;;;;6.78;5.70;;;;;;;;;;5079907;28;20024;-76
2023/05/13 07:35:39;;;;;;;5.97;5.35;;;;;;;;;;5087083;28;20032;-76
2023/05/13 07:38:07;;;;;;;6.93;6.13;;;;;;;;;;5092180;28;20035;-76
2023/05/13 07:40:33;;;;;;;5.10;4.45;;;;;;;;;;5092871;28;20027;-77
2023/05/13 07:42:59;;;;;;;8.23;5.47;;;;;;;;;;5093122;28;20386;-77
2023/05/13 07:45:26;;;;;;;5.95;4.55;;;;;;;;;;5093305;28;20112;-77
2023/05/13 07:47:52;;;;;;;6.38;5.15;;;;;;;;;;5092714;28;20020;-77
2023/05/13 07:50:18;;;;;;;7.28;5.68;;;;;;;;;;5074494;28;20035;-77
2023/05/13 07:52:47;;;;;;;8.00;5.18;;;;;;;;;;5092054;28;20497;-77
2023/05/13 07:55:13;;;;;;;6.90;5.93;;;;;;;;;;5092359;28;20119;-77
2023/05/13 07:57:39;;;;;;;6.68;5.20;;;;;;;;;;5092379;28;20075;-77
2023/05/13 08:00:08;;;;;;;6.63;5.65;;;;;;;;;;5087719;28;20358;-77
2023/05/13 08:02:34;;;;;;;5.78;4.78;;;;;;;;;;5066837;28;20024;-77
2023/05/13 08:05:00;;;;;;;5.45;3.95;;;;;;;;;;5092879;28;20043;-77
2023/05/13 08:07:28;;;;;;;6.63;5.22;;;;;;;;;;5074328;28;20050;-77
2023/05/13 08:09:54;;;;;;;5.40;4.90;;;;;;;;;;5092331;28;20028;-77
2023/05/13 08:12:20;;;;;;;6.20;4.75;;;;;;;;;;5090925;28;20052;-77
2023/05/13 08:14:46;;;;;;;5.68;4.65;;;;;;;;;;5091077;28;20032;-77
2023/05/13 08:17:12;;;;;;;5.93;5.32;;;;;;;;;;5091945;28;20030;-77
2023/05/13 08:19:38;;;;;;;4.55;3.88;;;;;;;;;;5092247;28;20028;-77
2023/05/13 08:22:04;;;;;;;5.70;5.15;;;;;;;;;;5095946;28;20467;-77
2023/05/13 08:24:30;;;;;;;4.25;3.85;;;;;;;;;;5088373;28;20773;-77
2023/05/13 08:26:56;;;;;;;4.15;3.78;;;;;;;;;;5096138;28;20059;-77
2023/05/13 08:29:22;;;;;;;5.22;4.72;;;;;;;;;;5096147;28;20024;-77
2023/05/13 08:31:50;;;;;;;6.63;5.13;;;;;;;;;;5096016;28;20028;-78
2023/05/13 08:34:16;;;;;;;10.15;5.80;;;;;;;;;;5095078;28;20032;-77
2023/05/13 08:36:42;;;;;;;7.03;6.10;;;;;;;;;;5095435;28;20410;-77
2023/05/13 08:39:09;;;;;;;6.50;4.80;;;;;;;;;;5095131;28;20678;-77
2023/05/13 08:41:37;;;;;;;9.93;6.75;;;;;;;;;;5094730;28;20039;-77
2023/05/13 08:44:06;;;;;;;8.82;6.32;;;;;;;;;;5088632;28;20154;-77
2023/05/13 08:46:33;;;;;;;7.60;5.70;;;;;;;;;;5092055;28;20047;-76
2023/05/13 08:49:00;;;;;;;7.25;4.97;;;;;;;;;;5089296;28;20028;-76
2023/05/13 08:51:26;;;;;;;6.88;5.20;;;;;;;;;;5092833;28;20023;-77
2023/05/13 08:53:53;;;;;;;5.97;4.57;;;;;;;;;;5092639;28;20077;-77
2023/05/13 08:56:21;;;;;;;6.40;4.40;;;;;;;;;;5092393;28;20036;-77
2023/05/13 08:58:47;;;;;;;5.25;4.72;;;;;;;;;;5092880;28;20060;-77
2023/05/13 09:01:13;;;;;;;8.05;4.38;;;;;;;;;;5092761;28;20177;-77
2023/05/13 09:03:45;;;;;;;5.03;4.53;;;;;;;;;;5091926;28;20028;-77
2023/05/13 09:06:11;;;;;;;6.93;5.75;;;;;;;;;;5093392;28;20036;-77
2023/05/13 09:08:37;;;;;;;7.30;5.90;;;;;;;;;;5095261;28;20506;-76
2023/05/13 09:11:03;;;;;;;5.82;4.93;;;;;;;;;;5084567;28;20024;-77
2023/05/13 09:13:29;;;;;;;6.25;5.57;;;;;;;;;;5087183;28;20136;-77
2023/05/13 09:15:56;;;;;;;6.50;5.88;;;;;;;;;;5085829;28;20036;-76
2023/05/13 09:18:28;;;;;;;7.90;5.38;;;;;;;;;;5094673;28;20024;-76
2023/05/13 09:20:56;;;;;;;5.13;4.63;;;;;;;;;;5087051;28;20089;-77
2023/05/13 09:23:24;;;;;;;4.32;4.00;;;;;;;;;;5094546;28;20035;-77
2023/05/13 09:25:50;;;;;;;7.80;5.72;;;;;;;;;;5076023;28;20492;-77
2023/05/13 09:28:16;;;;;;;9.48;5.93;;;;;;;;;;5094343;28;20111;-76
2023/05/13 09:30:43;;;;;;;7.97;4.97;;;;;;;;;;5094656;28;20383;-77
2023/05/13 09:33:11;;;;;;;7.38;5.47;;;;;;;;;;5094012;28;20252;-77
2023/05/13 09:35:38;;;;;;;5.45;4.90;;;;;;;;;;5091948;28;20066;-77
2023/05/13 09:38:20;;;;;;;9.35;5.10;;;;;;;;;;5094473;28;20062;-76
2023/05/13 09:40:53;;;;;;;4.90;3.70;;;;;;;;;;5094037;28;20043;-76
2023/05/13 09:43:20;;;;;;;7.97;5.45;;;;;;;;;;5094286;28;20034;-76
2023/05/13 09:45:46;;;;;;;8.32;5.22;;;;;;;;;;5094184;28;20028;-77
2023/05/13 09:48:13;;;;;;;7.25;5.00;;;;;;;;;;5094418;28;20055;-77
2023/05/13 09:50:47;;;;;;;6.38;5.50;;;;;;;;;;5094416;28;20458;-77
2023/05/13 09:53:13;;;;;;;6.47;5.90;;;;;;;;;;5094553;28;20023;-77
2023/05/13 09:55:43;;;;;;;5.78;5.10;;;;;;;;;;5094071;28;20028;-77
2023/05/13 09:58:10;;;;;;;6.30;4.97;;;;;;;;;;5093982;28;20028;-77
2023/05/13 10:00:37;;;;;;;9.27;5.80;;;;;;;;;;5093842;28;20024;-77
2023/05/13 10:03:04;;;;;;;7.85;5.38;;;;;;;;;;5094159;28;20012;-77
2023/05/13 10:05:30;;;;;;;7.70;6.22;;;;;;;;;;5091078;28;20043;-77
2023/05/13 10:08:00;;;;;;;6.53;5.72;;;;;;;;;;5075062;28;20550;-77
2023/05/13 10:10:26;;;;;;;7.88;6.15;;;;;;;;;;5089647;28;20036;-77
2023/05/13 10:12:52;;;;;;;7.97;5.47;;;;;;;;;;5085279;28;20040;-77
2023/05/13 10:15:19;;;;;;;6.95;5.57;;;;;;;;;;5093858;28;20040;-77
2023/05/13 10:17:45;;;;;;;6.53;5.18;;;;;;;;;;5093711;28;20024;-77
2023/05/13 10:20:12;;;;;;;8.57;6.55;;;;;;;;;;5093611;28;20027;-77
2023/05/13 10:22:39;;;;;;;9.40;5.68;;;;;;;;;;5093668;28;20035;-77
2023/05/13 10:25:06;;;;;;;10.85;6.55;;;;;;;;;;5093736;28;20024;-77
2023/05/13 10:27:33;;;;;;;9.35;6.13;;;;;;;;;;5093893;28;20022;-77
2023/05/13 10:30:00;;;;;;;6.05;5.47;;;;;;;;;;5075757;28;20735;-77
2023/05/13 10:32:27;;;;;;;7.90;6.63;;;;;;;;;;5086672;28;20039;-77
2023/05/13 10:34:56;;;;;;;8.00;6.85;;;;;;;;;;5093768;28;20028;-77
2023/05/13 10:37:34;;;;;;;9.27;6.82;;;;;;;;;;5093650;28;20493;-78
2023/05/13 10:40:15;;;;;;;6.53;5.53;;;;;;;;;;5093394;28;20051;-77
2023/05/13 10:42:42;;;;;;;8.40;7.00;;;;;;;;;;5092573;28;20028;-77
2023/05/13 10:45:09;;;;;;;6.97;4.90;;;;;;;;;;5093559;28;20064;-77
2023/05/13 10:47:35;;;;;;;9.25;6.22;;;;;;;;;;5093115;28;20500;-77
2023/05/13 10:50:06;;;;;;;7.60;5.00;;;;;;;;;;5084847;28;20048;-77
2023/05/13 10:53:03;;;;;;;10.30;6.78;;;;;;;;;;5093054;28;20558;-77
2023/05/13 10:55:29;;;;;;;6.90;6.20;;;;;;;;;;5065414;28;20047;-77
2023/05/13 10:58:12;;;;;;;6.10;4.68;;;;;;;;;;5090646;28;20020;-77
2023/05/13 11:00:39;;;;;;;7.68;6.65;;;;;;;;;;5092992;28;20518;-77
2023/05/13 11:03:34;;;;;;;8.88;6.78;;;;;;;;;;5074760;28;20027;-77
2023/05/13 11:06:03;;;;;;;9.05;6.57;;;;;;;;;;5064944;28;20048;-77
2023/05/13 11:08:45;;;;;;;9.25;6.57;;;;;;;;;;5093232;28;20034;-78
2023/05/13 11:11:21;;;;;;;10.35;7.50;;;;;;;;;;5092887;28;20078;-78
2023/05/13 11:14:13;;;;;;;10.45;6.90;;;;;;;;;;5091089;28;20609;-78
2023/05/13 11:16:44;;;;;;;11.85;8.40;;;;;;;;;;5082339;28;20056;-77
2023/05/13 11:19:18;;;;;;;9.15;7.60;;;;;;;;;;5090836;28;20557;-77
2023/05/13 11:21:47;;;;;;;9.45;8.50;;;;;;;;;;5082908;28;20033;-77
2023/05/13 11:24:16;;;;;;;7.77;6.97;;;;;;;;;;5090885;28;20554;-78
2023/05/13 11:26:50;;;;;;;9.80;8.02;;;;;;;;;;5074717;28;20024;-78
2023/05/13 11:29:29;;;;;;;11.50;8.82;;;;;;;;;;5092378;28;20490;-77
2023/05/13 11:31:57;;;;;;;8.57;6.63;;;;;;;;;;5092704;28;20060;-78
2023/05/13 11:34:23;;;;;;;14.27;8.82;;;;;;;;;;5092894;28;20028;-78
2023/05/13 11:36:50;;;;;;;10.02;7.05;;;;;;;;;;5086640;28;20021;-78
2023/05/13 11:39:17;;;;;;;13.25;7.55;;;;;;;;;;5090832;28;20107;-77
2023/05/13 11:41:44;;;;;;;9.82;8.45;;;;;;;;;;5092490;28;20029;-78
2023/05/13 11:44:11;;;;;;;11.10;8.25;;;;;;;;;;5092565;28;20035;-78
2023/05/13 11:46:37;;;;;;;11.63;7.85;;;;;;;;;;5092693;28;20016;-77
2023/05/13 11:49:03;;;;;;;9.15;7.05;;;;;;;;;;5089387;28;20113;-78
2023/05/13 11:51:30;;;;;;;7.80;6.22;;;;;;;;;;5092567;28;20497;-78
2023/05/13 11:54:03;;;;;;;8.40;7.20;;;;;;;;;;5090035;28;20020;-78
2023/05/13 11:56:29;;;;;;;9.38;6.18;;;;;;;;;;5093474;28;20035;-78
2023/05/13 11:58:55;;;;;;;8.85;6.32;;;;;;;;;;5096603;28;20466;-77
2023/05/13 12:01:22;;;;;;;8.43;7.05;;;;;;;;;;5096596;28;20482;-78
2023/05/13 12:03:48;;;;;;;9.15;6.80;;;;;;;;;;5089139;28;20047;-77
2023/05/13 12:06:14;;;;;;;8.27;7.05;;;;;;;;;;5091689;28;20036;-78
2023/05/13 12:08:45;;;;;;;11.75;7.40;;;;;;;;;;5088602;28;20059;-77
2023/05/13 12:11:12;;;;;;;9.00;6.30;;;;;;;;;;5097961;28;20020;-78
2023/05/13 12:13:40;;;;;;;7.45;6.05;;;;;;;;;;5096953;28;20047;-77
2023/05/13 12:16:06;;;;;;;8.35;7.28;;;;;;;;;;5097288;28;20063;-78
2023/05/13 12:18:33;;;;;;;9.00;7.53;;;;;;;;;;5097640;28;20043;-77
2023/05/13 12:20:59;;;;;;;13.27;8.13;;;;;;;;;;5097619;28;20016;-77
2023/05/13 12:23:25;;;;;;;10.32;8.00;;;;;;;;;;5097427;28;20103;-77
2023/05/13 12:25:52;;;;;;;9.60;8.20;;;;;;;;;;5098596;28;20059;-77
2023/05/13 12:28:19;;;;;;;13.40;7.90;;;;;;;;;;5080361;28;20027;-78
2023/05/13 12:30:51;;;;;;;9.80;8.73;;;;;;;;;;5097349;28;20028;-77
2023/05/13 12:33:19;;;;;;;10.13;8.50;;;;;;;;;;5097470;28;20020;-77
2023/05/13 12:35:47;;;;;;;8.43;7.53;;;;;;;;;;5066370;28;20036;-77
2023/05/13 12:38:17;;;;;;;9.77;8.80;;;;;;;;;;5096753;28;20035;-78
2023/05/13 12:40:46;;;;;;;10.70;6.70;;;;;;;;;;5095726;28;20024;-77
2023/05/13 12:43:13;;;;;;;8.87;7.47;;;;;;;;;;5075180;28;20050;-77
2023/05/13 12:45:40;;;;;;;10.38;6.97;;;;;;;;;;5075154;28;20245;-77
2023/05/13 12:48:06;;;;;;;9.55;5.88;;;;;;;;;;5083907;28;20035;-77
2023/05/13 12:50:33;;;;;;;7.93;5.50;;;;;;;;;;5095373;28;20025;-77
2023/05/13 12:52:59;;;;;;;8.45;5.97;;;;;;;;;;5095153;28;20028;-77
2023/05/13 12:55:26;;;;;;;7.57;6.07;;;;;;;;;;5080579;28;20032;-77
2023/05/13 12:57:56;;;;;;;7.65;6.28;;;;;;;;;;5085465;28;20020;-78
2023/05/13 13:00:29;;;;;;;6.38;5.05;;;;;;;;;;5097060;28;20024;-77
2023/05/13 13:02:55;;;;;;;11.02;7.03;;;;;;;;;;5097786;28;20020;-78
2023/05/13 13:05:22;;;;;;;8.50;5.07;;;;;;;;;;5097183;28;20398;-78
2023/05/13 13:07:48;;;;;;;9.80;7.05;;;;;;;;;;5097705;28;20058;-78
2023/05/13 13:10:15;;;;;;;9.77;7.28;;;;;;;;;;5079405;28;20088;-78
2023/05/13 13:12:41;;;;;;;11.15;7.93;;;;;;;;;;5099786;28;20533;-78
2023/05/13 13:15:13;;;;;;;8.95;7.78;;;;;;;;;;5096995;28;20051;-78
2023/05/13 13:17:39;;;;;;;9.65;7.95;;;;;;;;;;5096671;28;20477;-79
2023/05/13 13:20:05;;;;;;;9.27;7.03;;;;;;;;;;5100757;28;20028;-78
2023/05/13 13:22:33;;;;;;;10.02;8.13;;;;;;;;;;5086748;28;20405;-78
2023/05/13 13:24:59;;;;;;;10.43;8.35;;;;;;;;;;5087030;28;20020;-79
2023/05/13 13:27:25;;;;;;;11.85;8.70;;;;;;;;;;5088760;28;20059;-78
2023/05/13 13:29:51;;;;;;;11.73;8.18;;;;;;;;;;5100107;28;20080;-78
2023/05/13 13:32:17;;;;;;;10.98;9.57;;;;;;;;;;5102021;28;20035;-79
2023/05/13 13:34:43;;;;;;;9.20;8.27;;;;;;;;;;5099983;28;20040;-79
2023/05/13 13:37:09;;;;;;;11.07;8.38;;;;;;;;;;5100163;28;20028;-78
2023/05/13 13:39:35;;;;;;;9.75;8.27;;;;;;;;;;5101437;28;20374;-78
2023/05/13 13:42:03;;;;;;;8.93;7.88;;;;;;;;;;5098250;28;20028;-79
2023/05/13 13:44:29;;;;;;;7.03;6.30;;;;;;;;;;5096879;28;20017;-79
2023/05/13 13:46:55;;;;;;;10.95;8.18;;;;;;;;;;5069576;28;20016;-78
2023/05/13 13:49:22;;;;;;;10.85;7.93;;;;;;;;;;5099013;28;20076;-78
2023/05/13 13:51:48;;;;;;;14.82;8.85;;;;;;;;;;5101400;28;20115;-79
2023/05/13 13:54:14;;;;;;;10.40;8.60;;;;;;;;;;5081349;28;20055;-78
2023/05/13 13:56:40;;;;;;;11.30;7.70;;;;;;;;;;5082077;28;20031;-78
2023/05/13 13:59:06;;;;;;;10.43;9.32;;;;;;;;;;5093869;28;20029;-78
2023/05/13 14:01:32;;;;;;;11.40;7.50;;;;;;;;;;5096409;28;20360;-79
2023/05/13 14:04:10;;;;;;;8.98;8.07;;;;;;;;;;5097153;28;20142;-79
2023/05/13 14:06:38;;;;;;;9.90;8.20;;;;;;;;;;5099564;28;20024;-79
2023/05/13 14:09:05;;;;;;;9.30;7.63;;;;;;;;;;5099356;28;20080;-79
2023/05/13 14:11:31;;;;;;;12.73;7.20;;;;;;;;;;5100905;28;20647;-79
2023/05/13 14:13:57;;;;;;;11.07;6.78;;;;;;;;;;5097021;28;20047;-78
2023/05/13 14:16:23;;;;;;;6.30;4.80;;;;;;;;;;5100539;28;20040;-78
2023/05/13 14:18:49;;;;;;;10.13;7.18;;;;;;;;;;5100274;28;20024;-79
2023/05/13 14:21:16;;;;;;;8.85;7.22;;;;;;;;;;5095401;28;20355;-78
2023/05/13 14:23:42;;;;;;;9.07;7.55;;;;;;;;;;5098735;28;20036;-79
2023/05/13 14:26:09;;;;;;;11.00;6.78;;;;;;;;;;5088946;28;20032;-79
2023/05/13 14:28:35;;;;;;;9.75;7.43;;;;;;;;;;5104289;28;20020;-79
2023/05/13 14:31:02;;;;;;;9.73;6.68;;;;;;;;;;5092615;28;20726;-78